sensor_id;sensor_type;location;lat;lon;timestamp;pressure;altitude;pressure_sealevel;temperature;humidity
79250;BME280;68679;51.030;7.584;2024-03-02T00:02:21;97599.22;;;4.96;70.82
79250;BME280;68679;51.030;7.584;2024-03-02T00:04:46;97599.50;;;4.95;70.99
79250;BME280;68679;51.030;7.584;2024-03-02T00:07:14;97603.94;;;4.89;70.92
79250;BME280;68679;51.030;7.584;2024-03-02T00:09:39;97601.84;;;4.91;71.01
79250;BME280;68679;51.030;7.584;2024-03-02T00:12:05;97604.97;;;4.93;70.96
79250;BME280;68679;51.030;7.584;2024-03-02T00:14:30;97612.47;;;4.95;71.04
79250;BME280;68679;51.030;7.584;2024-03-02T00:16:56;97609.88;;;4.95;71.00
79250;BME280;68679;51.030;7.584;2024-03-02T00:19:21;97600.81;;;4.92;71.00
79250;BME280;68679;51.030;7.584;2024-03-02T00:21:46;97604.97;;;4.93;71.01
79250;BME280;68679;51.030;7.584;2024-03-02T00:24:20;97610.44;;;4.87;71.14
79250;BME280;68679;51.030;7.584;2024-03-02T00:26:46;97623.44;;;4.87;71.15
79250;BME280;68679;51.030;7.584;2024-03-02T00:29:15;97610.44;;;4.87;70.96
79250;BME280;68679;51.030;7.584;2024-03-02T00:31:41;97608.38;;;4.83;71.11
79250;BME280;68679;51.030;7.584;2024-03-02T00:34:06;97601.88;;;4.86;71.26
79250;BME280;68679;51.030;7.584;2024-03-02T00:36:32;97610.44;;;4.87;71.19
79250;BME280;68679;51.030;7.584;2024-03-02T00:38:58;97600.06;;;4.87;71.47
79250;BME280;68679;51.030;7.584;2024-03-02T00:41:30;97604.47;;;4.86;71.28
79250;BME280;68679;51.030;7.584;2024-03-02T00:44:13;97595.09;;;4.90;71.43
79250;BME280;68679;51.030;7.584;2024-03-02T00:46:41;97601.81;;;4.96;71.32
79250;BME280;68679;51.030;7.584;2024-03-02T00:49:22;97593.50;;;4.99;71.64
79250;BME280;68679;51.030;7.584;2024-03-02T00:51:49;97594.25;;;5.00;71.88
79250;BME280;68679;51.030;7.584;2024-03-02T00:54:19;97583.84;;;5.05;71.45
79250;BME280;68679;51.030;7.584;2024-03-02T00:56:46;97579.63;;;5.09;71.70
79250;BME280;68679;51.030;7.584;2024-03-02T00:59:12;97577.31;;;5.07;71.90
79250;BME280;68679;51.030;7.584;2024-03-02T01:01:37;97572.41;;;5.06;72.14
79250;BME280;68679;51.030;7.584;2024-03-02T01:04:03;97585.38;;;5.11;72.53
79250;BME280;68679;51.030;7.584;2024-03-02T01:06:28;97570.75;;;5.15;71.82
79250;BME280;68679;51.030;7.584;2024-03-02T01:08:54;97568.16;;;5.15;71.86
79250;BME280;68679;51.030;7.584;2024-03-02T01:11:20;97566.59;;;5.19;72.19
79250;BME280;68679;51.030;7.584;2024-03-02T01:13:47;97558.03;;;5.19;71.98
79250;BME280;68679;51.030;7.584;2024-03-02T01:16:12;97558.28;;;5.17;72.20
79250;BME280;68679;51.030;7.584;2024-03-02T01:18:38;97561.38;;;5.19;72.47
79250;BME280;68679;51.030;7.584;2024-03-02T01:21:03;97552.06;;;5.18;72.26
79250;BME280;68679;51.030;7.584;2024-03-02T01:23:29;97561.13;;;5.21;72.22
79250;BME280;68679;51.030;7.584;2024-03-02T01:25:54;97546.56;;;5.20;72.06
79250;BME280;68679;51.030;7.584;2024-03-02T01:28:20;97559.03;;;5.23;72.51
79250;BME280;68679;51.030;7.584;2024-03-02T01:30:45;97545.53;;;5.21;72.07
79250;BME280;68679;51.030;7.584;2024-03-02T01:33:11;97554.38;;;5.20;71.87
79250;BME280;68679;51.030;7.584;2024-03-02T01:35:36;97556.69;;;5.21;72.06
79250;BME280;68679;51.030;7.584;2024-03-02T01:38:02;97545.53;;;5.21;71.94
79250;BME280;68679;51.030;7.584;2024-03-02T01:40:28;97540.88;;;5.18;72.04
79250;BME280;68679;51.030;7.584;2024-03-02T01:42:54;97547.38;;;5.15;71.98
79250;BME280;68679;51.030;7.584;2024-03-02T01:45:20;97542.19;;;5.15;72.01
79250;BME280;68679;51.030;7.584;2024-03-02T01:47:45;97536.75;;;5.17;72.02
79250;BME280;68679;51.030;7.584;2024-03-02T01:50:11;97539.59;;;5.15;71.62
79250;BME280;68679;51.030;7.584;2024-03-02T01:52:37;97534.47;;;5.10;71.80
79250;BME280;68679;51.030;7.584;2024-03-02T01:55:03;97532.88;;;5.09;72.10
79250;BME280;68679;51.030;7.584;2024-03-02T01:57:29;97529.28;;;5.05;71.74
79250;BME280;68679;51.030;7.584;2024-03-02T01:59:54;97525.09;;;5.09;71.95
79250;BME280;68679;51.030;7.584;2024-03-02T02:02:19;97526.91;;;5.08;71.77
79250;BME280;68679;51.030;7.584;2024-03-02T02:04:45;97527.19;;;5.07;71.91
79250;BME280;68679;51.030;7.584;2024-03-02T02:07:10;97522.56;;;5.04;71.94
79250;BME280;68679;51.030;7.584;2024-03-02T02:09:36;97520.16;;;5.07;71.84
79250;BME280;68679;51.030;7.584;2024-03-02T02:12:01;97511.63;;;5.02;71.72
79250;BME280;68679;51.030;7.584;2024-03-02T02:14:27;97516.06;;;5.01;71.90
79250;BME280;68679;51.030;7.584;2024-03-02T02:16:53;97518.66;;;5.01;71.73
79250;BME280;68679;51.030;7.584;2024-03-02T02:19:19;97513.47;;;5.01;71.98
79250;BME280;68679;51.030;7.584;2024-03-02T02:21:44;97508.00;;;5.03;71.72
79250;BME280;68679;51.030;7.584;2024-03-02T02:24:09;97501.25;;;5.02;71.84
79250;BME280;68679;51.030;7.584;2024-03-02T02:26:35;97502.03;;;5.02;71.81
79250;BME280;68679;51.030;7.584;2024-03-02T02:29:00;97493.75;;;5.00;71.79
79250;BME280;68679;51.030;7.584;2024-03-02T02:31:25;97502.59;;;4.99;71.79
79250;BME280;68679;51.030;7.584;2024-03-02T02:33:51;97515.00;;;5.02;71.99
79250;BME280;68679;51.030;7.584;2024-03-02T02:36:16;97516.84;;;5.02;71.93
79250;BME280;68679;51.030;7.584;2024-03-02T02:38:44;97510.34;;;5.04;71.77
79250;BME280;68679;51.030;7.584;2024-03-02T02:41:10;97515.00;;;5.02;71.86
79250;BME280;68679;51.030;7.584;2024-03-02T02:43:35;97507.50;;;5.01;71.80
79250;BME280;68679;51.030;7.584;2024-03-02T02:46:01;97507.00;;;4.99;71.55
79250;BME280;68679;51.030;7.584;2024-03-02T02:48:26;97508.81;;;4.98;71.84
79250;BME280;68679;51.030;7.584;2024-03-02T02:50:51;97498.47;;;4.93;71.81
79250;BME280;68679;51.030;7.584;2024-03-02T02:53:16;97497.69;;;4.93;71.85
79250;BME280;68679;51.030;7.584;2024-03-02T02:55:42;97504.16;;;4.95;71.94
79250;BME280;68679;51.030;7.584;2024-03-02T02:58:09;97495.88;;;4.93;71.60
79250;BME280;68679;51.030;7.584;2024-03-02T03:00:34;97486.28;;;4.89;71.84
79250;BME280;68679;51.030;7.584;2024-03-02T03:02:59;97487.34;;;4.88;71.70
79250;BME280;68679;51.030;7.584;2024-03-02T03:05:25;97485.03;;;4.86;71.69
79250;BME280;68679;51.030;7.584;2024-03-02T03:07:50;97485.81;;;4.87;71.76
79250;BME280;68679;51.030;7.584;2024-03-02T03:10:16;97479.84;;;4.86;71.82
79250;BME280;68679;51.030;7.584;2024-03-02T03:12:42;97473.06;;;4.85;71.75
79250;BME280;68679;51.030;7.584;2024-03-02T03:15:09;97486.06;;;4.85;71.78
79250;BME280;68679;51.030;7.584;2024-03-02T03:17:34;97478.53;;;4.83;71.59
79250;BME280;68679;51.030;7.584;2024-03-02T03:20:00;97473.34;;;4.83;71.70
79250;BME280;68679;51.030;7.584;2024-03-02T03:22:26;97479.59;;;4.82;71.96
79250;BME280;68679;51.030;7.584;2024-03-02T03:24:51;97481.16;;;4.78;71.81
79250;BME280;68679;51.030;7.584;2024-03-02T03:27:17;97492.84;;;4.81;71.81
79250;BME280;68679;51.030;7.584;2024-03-02T03:29:42;97492.84;;;4.81;71.88
79250;BME280;68679;51.030;7.584;2024-03-02T03:32:07;97492.56;;;4.82;71.64
79250;BME280;68679;51.030;7.584;2024-03-02T03:34:33;97484.50;;;4.84;71.92
79250;BME280;68679;51.030;7.584;2024-03-02T03:36:58;97487.38;;;4.82;71.81
79250;BME280;68679;51.030;7.584;2024-03-02T03:39:24;97494.41;;;4.82;72.06
79250;BME280;68679;51.030;7.584;2024-03-02T03:41:49;97499.34;;;4.78;71.62
79250;BME280;68679;51.030;7.584;2024-03-02T03:44:14;97496.72;;;4.83;71.78
79250;BME280;68679;51.030;7.584;2024-03-02T03:46:40;97502.97;;;4.82;71.84
79250;BME280;68679;51.030;7.584;2024-03-02T03:49:05;97501.41;;;4.81;72.05
79250;BME280;68679;51.030;7.584;2024-03-02T03:51:30;97507.09;;;4.83;71.98
79250;BME280;68679;51.030;7.584;2024-03-02T03:53:56;97500.38;;;4.82;72.11
79250;BME280;68679;51.030;7.584;2024-03-02T03:56:21;97513.38;;;4.77;72.03
79250;BME280;68679;51.030;7.584;2024-03-02T03:58:46;97509.97;;;4.82;72.07
79250;BME280;68679;51.030;7.584;2024-03-02T04:01:12;97514.13;;;4.83;72.08
79250;BME280;68679;51.030;7.584;2024-03-02T04:03:38;97520.34;;;4.87;72.16
79250;BME280;68679;51.030;7.584;2024-03-02T04:06:03;97516.19;;;4.86;71.98
79250;BME280;68679;51.030;7.584;2024-03-02T04:08:28;97514.63;;;4.85;72.09
79250;BME280;68679;51.030;7.584;2024-03-02T04:10:54;97511.53;;;4.83;72.02
79250;BME280;68679;51.030;7.584;2024-03-02T04:13:19;97522.69;;;4.83;72.21
79250;BME280;68679;51.030;7.584;2024-03-02T04:15:44;97513.06;;;4.84;72.13
79250;BME280;68679;51.030;7.584;2024-03-02T04:18:09;97517.47;;;4.89;72.03
79250;BME280;68679;51.030;7.584;2024-03-02T04:20:35;97515.63;;;4.89;72.03
79250;BME280;68679;51.030;7.584;2024-03-02T04:23:00;97519.28;;;4.88;72.17
79250;BME280;68679;51.030;7.584;2024-03-02T04:25:25;97523.16;;;4.91;72.29
79250;BME280;68679;51.030;7.584;2024-03-02T04:27:51;97521.84;;;4.93;72.32
79250;BME280;68679;51.030;7.584;2024-03-02T04:30:16;97522.63;;;4.94;72.29
79250;BME280;68679;51.030;7.584;2024-03-02T04:32:42;97520.00;;;4.99;72.25
79250;BME280;68679;51.030;7.584;2024-03-02T04:35:11;97514.28;;;4.97;72.32
79250;BME280;68679;51.030;7.584;2024-03-02T04:37:36;97511.44;;;4.98;72.30
79250;BME280;68679;51.030;7.584;2024-03-02T04:40:01;97514.53;;;5.00;72.14
79250;BME280;68679;51.030;7.584;2024-03-02T04:42:27;97514.03;;;4.98;72.33
79250;BME280;68679;51.030;7.584;2024-03-02T04:44:52;97494.03;;;4.99;72.01
79250;BME280;68679;51.030;7.584;2024-03-02T04:47:17;97498.16;;;5.00;72.47
79250;BME280;68679;51.030;7.584;2024-03-02T04:49:43;97511.38;;;5.03;72.49
79250;BME280;68679;51.030;7.584;2024-03-02T04:52:08;97524.88;;;5.05;72.35
79250;BME280;68679;51.030;7.584;2024-03-02T04:54:34;97523.31;;;5.04;72.44
79250;BME280;68679;51.030;7.584;2024-03-02T04:57:19;97537.59;;;5.07;72.39
79250;BME280;68679;51.030;7.584;2024-03-02T04:59:44;97541.72;;;5.08;72.41
79250;BME280;68679;51.030;7.584;2024-03-02T05:02:10;97545.63;;;5.10;72.29
79250;BME280;68679;51.030;7.584;2024-03-02T05:04:35;97545.88;;;5.09;72.33
79250;BME280;68679;51.030;7.584;2024-03-02T05:07:00;97551.06;;;5.09;72.38
79250;BME280;68679;51.030;7.584;2024-03-02T05:09:26;97544.56;;;5.11;72.31
79250;BME280;68679;51.030;7.584;2024-03-02T05:11:51;97546.41;;;5.11;72.41
79250;BME280;68679;51.030;7.584;2024-03-02T05:14:36;97554.19;;;5.11;72.29
79250;BME280;68679;51.030;7.584;2024-03-02T05:17:01;97558.84;;;5.09;72.34
79250;BME280;68679;51.030;7.584;2024-03-02T05:19:26;97556.25;;;5.09;72.40
79250;BME280;68679;51.030;7.584;2024-03-02T05:21:52;97566.66;;;5.09;72.30
79250;BME280;68679;51.030;7.584;2024-03-02T05:24:17;97571.06;;;5.08;72.16
79250;BME280;68679;51.030;7.584;2024-03-02T05:26:42;97572.63;;;5.09;72.21
79250;BME280;68679;51.030;7.584;2024-03-02T05:29:08;97574.19;;;5.10;72.35
79250;BME280;68679;51.030;7.584;2024-03-02T05:31:33;97573.16;;;5.11;72.52
79250;BME280;68679;51.030;7.584;2024-03-02T05:33:59;97572.38;;;5.11;72.42
79250;BME280;68679;51.030;7.584;2024-03-02T05:36:24;97575.75;;;5.11;72.43
79250;BME280;68679;51.030;7.584;2024-03-02T05:38:49;97564.31;;;5.13;72.49
79250;BME280;68679;51.030;7.584;2024-03-02T05:41:15;97579.88;;;5.13;72.64
79250;BME280;68679;51.030;7.584;2024-03-02T05:43:40;97572.59;;;5.15;72.47
79250;BME280;68679;51.030;7.584;2024-03-02T05:46:05;97580.13;;;5.16;72.58
79250;BME280;68679;51.030;7.584;2024-03-02T05:48:30;97576.22;;;5.19;72.69
79250;BME280;68679;51.030;7.584;2024-03-02T05:50:56;97580.63;;;5.18;72.44
79250;BME280;68679;51.030;7.584;2024-03-02T05:53:21;97589.69;;;5.21;72.65
79250;BME280;68679;51.030;7.584;2024-03-02T05:55:47;97580.31;;;5.25;72.50
79250;BME280;68679;51.030;7.584;2024-03-02T05:58:12;97580.03;;;5.26;72.65
79250;BME280;68679;51.030;7.584;2024-03-02T06:00:51;97566.78;;;5.28;72.72
79250;BME280;68679;51.030;7.584;2024-03-02T06:03:16;97575.38;;;5.28;72.85
79250;BME280;68679;51.030;7.584;2024-03-02T06:05:41;97564.69;;;5.30;72.77
79250;BME280;68679;51.030;7.584;2024-03-02T06:08:06;97575.63;;;5.27;72.62
79250;BME280;68679;51.030;7.584;2024-03-02T06:10:32;97579.50;;;5.29;72.68
79250;BME280;68679;51.030;7.584;2024-03-02T06:12:58;97574.81;;;5.31;72.65
79250;BME280;68679;51.030;7.584;2024-03-02T06:15:24;97577.41;;;5.31;72.81
79250;BME280;68679;51.030;7.584;2024-03-02T06:17:49;97580.28;;;5.30;72.65
79250;BME280;68679;51.030;7.584;2024-03-02T06:20:15;97577.41;;;5.31;72.77
79250;BME280;68679;51.030;7.584;2024-03-02T06:22:40;97583.41;;;5.27;72.59
79250;BME280;68679;51.030;7.584;2024-03-02T06:25:06;97584.47;;;5.26;72.69
79250;BME280;68679;51.030;7.584;2024-03-02T06:27:31;97586.28;;;5.25;72.67
79250;BME280;68679;51.030;7.584;2024-03-02T06:29:56;97585.25;;;5.26;72.46
79250;BME280;68679;51.030;7.584;2024-03-02T06:32:21;97601.09;;;5.25;72.49
79250;BME280;68679;51.030;7.584;2024-03-02T06:34:48;97600.09;;;5.21;72.68
79250;BME280;68679;51.030;7.584;2024-03-02T06:37:13;97602.94;;;5.24;72.65
79250;BME280;68679;51.030;7.584;2024-03-02T06:39:38;97606.84;;;5.22;72.41
79250;BME280;68679;51.030;7.584;2024-03-02T06:42:04;97605.28;;;5.21;72.44
79250;BME280;68679;51.030;7.584;2024-03-02T06:44:29;97607.09;;;5.20;72.54
79250;BME280;68679;51.030;7.584;2024-03-02T06:46:54;97606.63;;;5.18;72.46
79250;BME280;68679;51.030;7.584;2024-03-02T06:49:20;97611.56;;;5.15;72.46
79250;BME280;68679;51.030;7.584;2024-03-02T06:51:45;97607.69;;;5.12;72.47
79250;BME280;68679;51.030;7.584;2024-03-02T06:54:10;97611.56;;;5.15;72.59
79250;BME280;68679;51.030;7.584;2024-03-02T06:56:36;97614.72;;;5.11;72.46
79250;BME280;68679;51.030;7.584;2024-03-02T06:59:02;97612.88;;;5.12;72.59
79250;BME280;68679;51.030;7.584;2024-03-02T07:01:27;97617.81;;;5.14;72.58
79250;BME280;68679;51.030;7.584;2024-03-02T07:03:53;97625.59;;;5.14;72.62
79250;BME280;68679;51.030;7.584;2024-03-02T07:06:18;97628.69;;;5.16;72.67
79250;BME280;68679;51.030;7.584;2024-03-02T07:08:44;97620.91;;;5.16;72.71
79250;BME280;68679;51.030;7.584;2024-03-02T07:11:09;97627.16;;;5.15;72.79
79250;BME280;68679;51.030;7.584;2024-03-02T07:13:34;97622.72;;;5.15;72.90
79250;BME280;68679;51.030;7.584;2024-03-02T07:16:00;97625.28;;;5.20;72.99
79250;BME280;68679;51.030;7.584;2024-03-02T07:18:28;97613.84;;;5.21;72.90
79250;BME280;68679;51.030;7.584;2024-03-02T07:20:53;97615.16;;;5.24;73.00
79250;BME280;68679;51.030;7.584;2024-03-02T07:23:18;97620.06;;;5.25;73.12
79250;BME280;68679;51.030;7.584;2024-03-02T07:25:45;97613.81;;;5.26;72.98
79250;BME280;68679;51.030;7.584;2024-03-02T07:28:11;97616.66;;;5.30;73.03
79250;BME280;68679;51.030;7.584;2024-03-02T07:30:36;97611.44;;;5.35;73.17
79250;BME280;68679;51.030;7.584;2024-03-02T07:33:03;97624.16;;;5.36;73.17
79250;BME280;68679;51.030;7.584;2024-03-02T07:35:29;97627.53;;;5.37;73.33
79250;BME280;68679;51.030;7.584;2024-03-02T07:37:56;97628.78;;;5.39;73.39
79250;BME280;68679;51.030;7.584;2024-03-02T07:40:22;97634.47;;;5.47;73.23
79250;BME280;68679;51.030;7.584;2024-03-02T07:42:47;97645.63;;;5.52;73.20
79250;BME280;68679;51.030;7.584;2024-03-02T07:45:13;97634.94;;;5.54;73.33
79250;BME280;68679;51.030;7.584;2024-03-02T07:47:38;97639.31;;;5.58;73.31
79250;BME280;68679;51.030;7.584;2024-03-02T07:50:03;97642.16;;;5.62;73.25
79250;BME280;68679;51.030;7.584;2024-03-02T07:52:31;97650.97;;;5.66;73.34
79250;BME280;68679;51.030;7.584;2024-03-02T07:54:57;97653.78;;;5.70;73.36
79250;BME280;68679;51.030;7.584;2024-03-02T07:57:22;97660.75;;;5.74;73.26
79250;BME280;68679;51.030;7.584;2024-03-02T07:59:47;97658.91;;;5.80;73.26
79250;BME280;68679;51.030;7.584;2024-03-02T08:02:14;97670.31;;;5.84;73.35
79250;BME280;68679;51.030;7.584;2024-03-02T08:04:40;97663.25;;;5.89;73.21
79250;BME280;68679;51.030;7.584;2024-03-02T08:07:06;97658.28;;;5.93;73.46
79250;BME280;68679;51.030;7.584;2024-03-02T08:09:31;97665.28;;;5.98;73.32
79250;BME280;68679;51.030;7.584;2024-03-02T08:11:56;97658.75;;;6.00;73.41
79250;BME280;68679;51.030;7.584;2024-03-02T08:14:23;97670.44;;;6.03;73.37
79250;BME280;68679;51.030;7.584;2024-03-02T08:16:48;97664.66;;;6.06;73.19
79250;BME280;68679;51.030;7.584;2024-03-02T08:19:13;97671.16;;;6.08;73.25
79250;BME280;68679;51.030;7.584;2024-03-02T08:21:39;97671.66;;;6.10;73.08
79250;BME280;68679;51.030;7.584;2024-03-02T08:24:04;97662.81;;;6.11;73.24
79250;BME280;68679;51.030;7.584;2024-03-02T08:26:30;97669.28;;;6.14;73.12
79250;BME280;68679;51.030;7.584;2024-03-02T08:28:57;97668.44;;;6.18;73.07
79250;BME280;68679;51.030;7.584;2024-03-02T08:31:22;97661.44;;;6.19;73.21
79250;BME280;68679;51.030;7.584;2024-03-02T08:33:48;97665.31;;;6.22;73.18
79250;BME280;68679;51.030;7.584;2024-03-02T08:36:13;97668.41;;;6.24;73.35
79250;BME280;68679;51.030;7.584;2024-03-02T08:38:39;97667.34;;;6.25;73.33
79250;BME280;68679;51.030;7.584;2024-03-02T08:41:04;97658.50;;;6.26;73.41
79250;BME280;68679;51.030;7.584;2024-03-02T08:43:30;97663.16;;;6.29;73.27
79250;BME280;68679;51.030;7.584;2024-03-02T08:45:55;97650.91;;;6.29;73.23
79250;BME280;68679;51.030;7.584;2024-03-02T08:48:21;97655.56;;;6.32;73.23
79250;BME280;68679;51.030;7.584;2024-03-02T08:50:46;97660.00;;;6.32;73.30
79250;BME280;68679;51.030;7.584;2024-03-02T08:53:11;97658.66;;;6.34;73.37
79250;BME280;68679;51.030;7.584;2024-03-02T08:55:37;97666.47;;;6.34;73.02
79250;BME280;68679;51.030;7.584;2024-03-02T08:58:02;97663.06;;;6.39;73.06
79250;BME280;68679;51.030;7.584;2024-03-02T09:00:28;97669.53;;;6.41;73.00
79250;BME280;68679;51.030;7.584;2024-03-02T09:02:53;97669.25;;;6.43;73.19
79250;BME280;68679;51.030;7.584;2024-03-02T09:05:19;97672.66;;;6.43;73.00
79250;BME280;68679;51.030;7.584;2024-03-02T09:07:44;97673.91;;;6.46;73.06
79250;BME280;68679;51.030;7.584;2024-03-02T09:10:10;97657.22;;;6.47;73.14
79250;BME280;68679;51.030;7.584;2024-03-02T09:12:35;97667.09;;;6.50;72.91
79250;BME280;68679;51.030;7.584;2024-03-02T09:15:01;97669.41;;;6.52;73.10
79250;BME280;68679;51.030;7.584;2024-03-02T09:17:28;97660.00;;;6.56;73.23
79250;BME280;68679;51.030;7.584;2024-03-02T09:19:53;97662.03;;;6.59;73.23
79250;BME280;68679;51.030;7.584;2024-03-02T09:22:19;97649.25;;;6.62;73.12
79250;BME280;68679;51.030;7.584;2024-03-02T09:24:45;97660.66;;;6.66;73.01
79250;BME280;68679;51.030;7.584;2024-03-02T09:27:10;97654.88;;;6.69;73.03
79250;BME280;68679;51.030;7.584;2024-03-02T09:29:36;97658.50;;;6.74;72.95
79250;BME280;68679;51.030;7.584;2024-03-02T09:32:01;97654.25;;;6.78;73.10
79250;BME280;68679;51.030;7.584;2024-03-02T09:34:27;97657.09;;;6.81;73.44
79250;BME280;68679;51.030;7.584;2024-03-02T09:36:52;97650.53;;;6.84;72.90
79250;BME280;68679;51.030;7.584;2024-03-02T09:39:17;97650.47;;;6.89;73.36
79250;BME280;68679;51.030;7.584;2024-03-02T09:41:43;97654.06;;;6.93;73.23
79250;BME280;68679;51.030;7.584;2024-03-02T09:44:09;97643.59;;;6.98;73.26
79250;BME280;68679;51.030;7.584;2024-03-02T09:46:34;97636.47;;;7.04;73.08
79250;BME280;68679;51.030;7.584;2024-03-02T09:49:01;97638.22;;;7.08;73.03
79250;BME280;68679;51.030;7.584;2024-03-02T09:51:27;97643.66;;;7.12;73.07
79250;BME280;68679;51.030;7.584;2024-03-02T09:53:54;97649.56;;;7.17;73.07
79250;BME280;68679;51.030;7.584;2024-03-02T09:56:21;97640.13;;;7.21;73.16
79250;BME280;68679;51.030;7.584;2024-03-02T09:58:47;97644.50;;;7.26;73.34
79250;BME280;68679;51.030;7.584;2024-03-02T10:01:12;97642.88;;;7.30;73.57
79250;BME280;68679;51.030;7.584;2024-03-02T10:03:38;97640.47;;;7.34;73.34
79250;BME280;68679;51.030;7.584;2024-03-02T10:06:24;97645.59;;;7.39;73.31
79250;BME280;68679;51.030;7.584;2024-03-02T10:08:50;97642.91;;;7.44;73.41
79250;BME280;68679;51.030;7.584;2024-03-02T10:11:36;97639.19;;;7.50;73.34
79250;BME280;68679;51.030;7.584;2024-03-02T10:14:10;97640.16;;;7.54;73.43
79250;BME280;68679;51.030;7.584;2024-03-02T10:16:37;97648.69;;;7.60;73.41
79250;BME280;68679;51.030;7.584;2024-03-02T10:19:24;97645.50;;;7.63;73.47
79250;BME280;68679;51.030;7.584;2024-03-02T10:21:54;97639.91;;;7.69;73.33
79250;BME280;68679;51.030;7.584;2024-03-02T10:24:22;97643.22;;;7.75;73.43
79250;BME280;68679;51.030;7.584;2024-03-02T10:26:48;97644.97;;;7.79;73.35
79250;BME280;68679;51.030;7.584;2024-03-02T10:29:14;97638.13;;;7.84;73.18
79250;BME280;68679;51.030;7.584;2024-03-02T10:31:46;97647.41;;;7.90;73.40
79250;BME280;68679;51.030;7.584;2024-03-02T10:34:12;97647.81;;;7.97;73.35
79250;BME280;68679;51.030;7.584;2024-03-02T10:36:44;97646.94;;;8.01;73.26
79250;BME280;68679;51.030;7.584;2024-03-02T10:39:13;97649.44;;;8.06;73.16
79250;BME280;68679;51.030;7.584;2024-03-02T10:41:40;97644.16;;;8.12;73.00
79250;BME280;68679;51.030;7.584;2024-03-02T10:44:07;97650.34;;;8.16;72.77
79250;BME280;68679;51.030;7.584;2024-03-02T10:46:34;97643.97;;;8.22;72.97
79250;BME280;68679;51.030;7.584;2024-03-02T10:49:01;97643.09;;;8.26;73.06
79250;BME280;68679;51.030;7.584;2024-03-02T10:51:29;97640.66;;;8.30;72.43
79250;BME280;68679;51.030;7.584;2024-03-02T10:53:57;97643.69;;;8.37;73.16
79250;BME280;68679;51.030;7.584;2024-03-02T10:56:39;97642.84;;;8.42;72.82
79250;BME280;68679;51.030;7.584;2024-03-02T10:59:26;97636.75;;;8.46;73.12
79250;BME280;68679;51.030;7.584;2024-03-02T11:01:55;97636.94;;;8.50;72.22
79250;BME280;68679;51.030;7.584;2024-03-02T11:04:24;97638.66;;;8.54;72.56
79250;BME280;68679;51.030;7.584;2024-03-02T11:06:50;97633.66;;;8.58;72.76
79250;BME280;68679;51.030;7.584;2024-03-02T11:09:19;97633.53;;;8.63;72.65
79250;BME280;68679;51.030;7.584;2024-03-02T11:11:45;97634.22;;;8.69;72.52
79250;BME280;68679;51.030;7.584;2024-03-02T11:14:16;97637.78;;;8.73;72.57
79250;BME280;68679;51.030;7.584;2024-03-02T11:16:42;97636.34;;;8.80;73.03
79250;BME280;68679;51.030;7.584;2024-03-02T11:19:11;97630.81;;;8.82;72.61
79250;BME280;68679;51.030;7.584;2024-03-02T11:21:37;97635.16;;;8.86;72.39
79250;BME280;68679;51.030;7.584;2024-03-02T11:26:46;97632.63;;;8.95;72.63
79250;BME280;68679;51.030;7.584;2024-03-02T11:32:01;97624.38;;;9.02;72.22
79250;BME280;68679;51.030;7.584;2024-03-02T11:34:32;97627.16;;;9.05;72.91
79250;BME280;68679;51.030;7.584;2024-03-02T11:36:58;97624.72;;;9.09;72.42
79250;BME280;68679;51.030;7.584;2024-03-02T11:39:27;97622.00;;;9.14;72.14
79250;BME280;68679;51.030;7.584;2024-03-02T11:41:52;97619.56;;;9.18;72.31
79250;BME280;68679;51.030;7.584;2024-03-02T11:44:18;97620.50;;;9.22;72.36
79250;BME280;68679;51.030;7.584;2024-03-02T11:46:52;97633.78;;;9.25;72.53
79250;BME280;68679;51.030;7.584;2024-03-02T11:49:42;97616.44;;;9.29;72.19
79250;BME280;68679;51.030;7.584;2024-03-02T11:52:09;97612.63;;;9.35;72.26
79250;BME280;68679;51.030;7.584;2024-03-02T11:54:37;97610.06;;;9.44;72.89
79250;BME280;68679;51.030;7.584;2024-03-02T11:57:05;97612.25;;;9.51;71.99
79250;BME280;68679;51.030;7.584;2024-03-02T11:59:31;97608.75;;;9.55;71.83
79250;BME280;68679;51.030;7.584;2024-03-02T12:01:57;97613.88;;;9.60;72.03
79250;BME280;68679;51.030;7.584;2024-03-02T12:04:23;97610.38;;;9.65;72.22
79250;BME280;68679;51.030;7.584;2024-03-02T12:06:59;97598.97;;;9.70;72.01
79250;BME280;68679;51.030;7.584;2024-03-02T12:09:28;97602.53;;;9.74;71.78
79250;BME280;68679;51.030;7.584;2024-03-02T12:12:07;97595.66;;;9.78;71.80
79250;BME280;68679;51.030;7.584;2024-03-02T12:14:34;97595.81;;;9.81;71.80
79250;BME280;68679;51.030;7.584;2024-03-02T12:17:00;97593.81;;;9.87;72.09
79250;BME280;68679;51.030;7.584;2024-03-02T12:19:26;97608.63;;;9.91;71.65
79250;BME280;68679;51.030;7.584;2024-03-02T12:21:53;97599.88;;;9.96;71.98
79250;BME280;68679;51.030;7.584;2024-03-02T12:24:18;97597.91;;;10.02;71.78
79250;BME280;68679;51.030;7.584;2024-03-02T12:26:44;97595.44;;;10.05;71.47
79250;BME280;68679;51.030;7.584;2024-03-02T12:29:10;97599.47;;;10.11;71.76
79250;BME280;68679;51.030;7.584;2024-03-02T12:31:35;97594.09;;;10.16;71.40
79250;BME280;68679;51.030;7.584;2024-03-02T12:34:02;97589.03;;;10.20;71.39
79250;BME280;68679;51.030;7.584;2024-03-02T12:36:28;97588.13;;;10.25;71.17
79250;BME280;68679;51.030;7.584;2024-03-02T12:38:53;97592.47;;;10.29;71.13
79250;BME280;68679;51.030;7.584;2024-03-02T12:41:20;97580.63;;;10.32;70.90
79250;BME280;68679;51.030;7.584;2024-03-02T12:43:45;97582.94;;;10.33;70.92
79250;BME280;68679;51.030;7.584;2024-03-02T12:46:11;97576.31;;;10.36;70.76
79250;BME280;68679;51.030;7.584;2024-03-02T12:48:36;97572.47;;;10.42;70.91
79250;BME280;68679;51.030;7.584;2024-03-02T12:51:02;97557.38;;;10.47;70.83
79250;BME280;68679;51.030;7.584;2024-03-02T12:53:28;97572.97;;;10.53;70.86
79250;BME280;68679;51.030;7.584;2024-03-02T12:55:53;97565.41;;;10.60;71.11
79250;BME280;68679;51.030;7.584;2024-03-02T12:58:22;97554.78;;;10.65;71.13
79250;BME280;68679;51.030;7.584;2024-03-02T13:00:47;97557.56;;;10.68;70.68
79250;BME280;68679;51.030;7.584;2024-03-02T13:03:13;97559.25;;;10.73;70.41
79250;BME280;68679;51.030;7.584;2024-03-02T13:05:39;97558.78;;;10.80;70.23
79250;BME280;68679;51.030;7.584;2024-03-02T13:08:05;97560.19;;;10.86;70.39
79250;BME280;68679;51.030;7.584;2024-03-02T13:10:32;97566.53;;;10.93;70.47
79250;BME280;68679;51.030;7.584;2024-03-02T13:12:58;97560.66;;;10.96;70.07